createdAt,value
2023-03-31T00:01:04.659Z,-1.31
2023-03-31T00:03:38.937Z,-1.34
2023-03-31T00:06:07.833Z,-1.41
2023-03-31T00:08:40.299Z,-1.37
2023-03-31T00:11:08.799Z,-1.39
2023-03-31T00:13:37.212Z,-1.37
2023-03-31T00:16:08.205Z,-1.39
2023-03-31T00:18:41.050Z,-1.37
2023-03-31T00:21:14.430Z,-1.36
2023-03-31T00:23:42.737Z,-1.35
2023-03-31T00:26:10.875Z,-1.43
2023-03-31T00:28:38.912Z,-1.38
2023-03-31T00:31:11.180Z,-1.40
2023-03-31T00:33:40.557Z,-1.52
2023-03-31T00:36:09.066Z,-1.49
2023-03-31T00:38:37.431Z,-1.58
2023-03-31T00:41:06.691Z,-1.48
2023-03-31T00:43:36.980Z,-1.52
2023-03-31T00:46:15.394Z,-1.53
2023-03-31T00:48:50.958Z,-1.54
2023-03-31T00:51:21.490Z,-1.56
2023-03-31T00:53:57.596Z,-1.57
2023-03-31T00:56:26.589Z,-1.56
2023-03-31T00:58:58.055Z,-1.57
2023-03-31T01:01:26.707Z,-1.56
2023-03-31T01:03:57.433Z,-1.63
2023-03-31T01:06:26.299Z,-1.68
2023-03-31T01:08:54.292Z,-1.58
2023-03-31T01:11:26.195Z,-1.57
2023-03-31T01:13:56.780Z,-1.57
2023-03-31T01:16:24.933Z,-1.55
2023-03-31T01:18:53.099Z,-1.58
2023-03-31T01:21:53.880Z,-1.57
2023-03-31T01:25:01.478Z,-1.53
2023-03-31T01:27:44.590Z,-1.60
2023-03-31T01:30:43.374Z,-1.62
2023-03-31T01:33:40.723Z,-1.67
2023-03-31T01:36:36.422Z,-1.71
2023-03-31T01:39:47.019Z,-1.71
2023-03-31T01:42:22.279Z,-1.70
2023-03-31T01:44:58.465Z,-1.69
2023-03-31T01:47:33.175Z,-1.77
2023-03-31T01:50:06.039Z,-1.71
2023-03-31T01:52:44.148Z,-1.73
2023-03-31T01:55:17.376Z,-1.75
2023-03-31T01:57:51.914Z,-1.76
2023-03-31T02:00:26.128Z,-1.75
2023-03-31T02:03:00.230Z,-1.85
2023-03-31T02:05:35.070Z,-1.75
2023-03-31T02:08:09.669Z,-1.73
2023-03-31T02:10:40.088Z,-1.70
2023-03-31T02:13:12.505Z,-1.80
2023-03-31T02:15:44.964Z,-1.78
2023-03-31T02:18:18.674Z,-1.78
2023-03-31T02:20:50.164Z,-1.76
2023-03-31T02:23:26.690Z,-1.77
2023-03-31T02:26:00.968Z,-1.81
2023-03-31T02:28:31.249Z,-1.77
2023-03-31T02:31:11.487Z,-1.75
2023-03-31T02:33:39.444Z,-1.74
2023-03-31T02:36:08.645Z,-1.78
2023-03-31T02:38:40.696Z,-1.81
2023-03-31T02:41:08.994Z,-1.85
2023-03-31T02:43:38.288Z,-1.77
2023-03-31T02:46:06.942Z,-1.79
2023-03-31T02:48:38.869Z,-1.74
2023-03-31T02:51:36.056Z,-1.75
2023-03-31T02:54:20.293Z,-1.73
2023-03-31T02:57:05.554Z,-1.81
2023-03-31T02:59:47.169Z,-1.77
2023-03-31T03:02:22.541Z,-1.77
2023-03-31T03:05:03.767Z,-1.79
2023-03-31T03:07:42.057Z,-1.80
2023-03-31T03:10:13.809Z,-1.86
2023-03-31T03:12:49.401Z,-1.80
2023-03-31T03:15:23.781Z,-1.75
2023-03-31T03:17:52.948Z,-1.80
2023-03-31T03:20:22.398Z,-1.80
2023-03-31T03:22:50.963Z,-1.89
2023-03-31T03:25:20.462Z,-1.84
2023-03-31T03:27:48.348Z,-1.83
2023-03-31T03:30:16.309Z,-1.83
2023-03-31T03:32:46.351Z,-1.82
2023-03-31T03:35:14.494Z,-1.86
2023-03-31T03:37:42.489Z,-1.80
2023-03-31T03:40:11.388Z,-1.81
2023-03-31T03:42:39.485Z,-1.82
2023-03-31T03:45:08.217Z,-1.90
2023-03-31T03:47:36.791Z,-1.80
2023-03-31T03:50:07.340Z,-1.82
2023-03-31T03:52:35.262Z,-1.80
2023-03-31T03:55:03.650Z,-1.82
2023-03-31T03:57:31.608Z,-1.83
2023-03-31T03:59:59.463Z,-1.87
2023-03-31T04:02:28.756Z,-1.87
2023-03-31T04:04:56.859Z,-1.88
2023-03-31T04:07:26.006Z,-1.87
2023-03-31T04:09:53.780Z,-1.83
2023-03-31T04:12:21.645Z,-1.91
2023-03-31T04:14:49.424Z,-1.87
2023-03-31T04:17:17.177Z,-1.87
2023-03-31T04:19:45.014Z,-1.86
2023-03-31T04:22:15.401Z,-1.79
2023-03-31T04:24:45.953Z,-1.81
2023-03-31T04:27:17.383Z,-1.82
2023-03-31T04:29:54.747Z,-1.98
2023-03-31T04:32:22.940Z,-1.81
2023-03-31T04:34:51.629Z,-1.84
2023-03-31T04:37:19.361Z,-1.78
2023-03-31T04:39:50.588Z,-1.77
2023-03-31T04:42:18.356Z,-1.77
2023-03-31T04:44:46.353Z,-1.72
2023-03-31T04:47:14.240Z,-1.69
2023-03-31T04:49:42.152Z,-1.72
2023-03-31T04:52:09.875Z,-1.72
2023-03-31T04:54:38.856Z,-1.70
2023-03-31T04:57:08.032Z,-1.74
2023-03-31T04:59:35.829Z,-1.78
2023-03-31T05:02:03.796Z,-1.67
2023-03-31T05:04:31.654Z,-1.60
2023-03-31T05:06:59.721Z,-1.63
2023-03-31T05:09:27.513Z,-1.49
2023-03-31T05:11:55.317Z,-1.58
2023-03-31T05:14:24.659Z,-1.59
2023-03-31T05:16:52.650Z,-1.52
2023-03-31T05:19:20.567Z,-1.48
2023-03-31T05:21:49.002Z,-1.48
2023-03-31T05:24:16.831Z,-1.43
2023-03-31T05:26:48.455Z,-1.27
2023-03-31T05:29:16.725Z,-1.30
2023-03-31T05:31:46.131Z,-1.29
2023-03-31T05:34:13.934Z,-1.18
2023-03-31T05:36:43.340Z,-1.21
2023-03-31T05:39:11.312Z,-1.22
2023-03-31T05:41:39.086Z,-1.18
2023-03-31T05:44:06.865Z,-1.21
2023-03-31T05:46:34.646Z,-1.20
2023-03-31T05:49:03.985Z,-1.05
2023-03-31T05:51:31.841Z,-0.98
2023-03-31T05:53:59.646Z,-0.98
2023-03-31T05:56:28.425Z,-0.89
2023-03-31T05:58:56.248Z,-0.64
2023-03-31T06:01:24.937Z,-0.55
2023-03-31T06:03:52.976Z,-0.44
2023-03-31T06:06:22.192Z,-0.36
2023-03-31T06:08:50.995Z,-0.28
2023-03-31T06:11:20.680Z,-0.23
2023-03-31T06:13:49.016Z,-0.18
2023-03-31T06:16:17.910Z,-0.08
2023-03-31T06:18:46.469Z,0.45
2023-03-31T06:21:17.413Z,0.98
2023-03-31T06:23:47.399Z,1.07
2023-03-31T06:26:16.975Z,1.64
2023-03-31T06:28:44.871Z,2.34
2023-03-31T06:31:14.550Z,2.49
2023-03-31T06:33:43.461Z,2.90
2023-03-31T06:36:14.662Z,3.20
2023-03-31T06:38:42.484Z,3.55
2023-03-31T06:41:14.861Z,4.02
2023-03-31T06:43:42.779Z,4.50
2023-03-31T06:46:11.515Z,4.18
2023-03-31T06:48:39.562Z,3.66
2023-03-31T06:51:09.029Z,3.68
2023-03-31T06:53:37.816Z,2.97
2023-03-31T06:56:07.924Z,2.88
2023-03-31T06:58:37.599Z,2.69
2023-03-31T07:01:06.931Z,2.37
2023-03-31T07:03:36.377Z,2.78
2023-03-31T07:06:04.394Z,2.91
2023-03-31T07:08:32.354Z,3.36
2023-03-31T07:11:01.999Z,4.20
2023-03-31T07:13:30.543Z,4.51
2023-03-31T07:16:00.612Z,3.98
2023-03-31T07:18:34.480Z,4.18
2023-03-31T07:21:09.812Z,4.86
2023-03-31T07:23:39.367Z,4.66
2023-03-31T07:26:07.475Z,4.76
2023-03-31T07:28:35.400Z,5.00
2023-03-31T07:31:11.212Z,4.39
2023-03-31T07:33:38.967Z,4.53
2023-03-31T07:36:12.749Z,3.75
2023-03-31T07:38:41.991Z,3.99
2023-03-31T07:41:12.814Z,4.46
2023-03-31T07:43:41.671Z,4.88
2023-03-31T07:46:17.952Z,5.43
2023-03-31T07:48:47.647Z,6.57
2023-03-31T07:51:17.052Z,6.11
2023-03-31T07:53:45.129Z,6.71
2023-03-31T07:56:13.331Z,6.99
2023-03-31T07:58:41.065Z,7.62
2023-03-31T08:01:09.206Z,6.98
2023-03-31T08:03:38.571Z,7.18
2023-03-31T08:06:06.944Z,6.92
2023-03-31T08:08:34.916Z,5.95
2023-03-31T08:11:02.792Z,4.68
2023-03-31T08:13:30.839Z,4.48
2023-03-31T08:15:58.770Z,5.12
2023-03-31T08:18:26.557Z,6.16
2023-03-31T08:20:55.669Z,6.61
2023-03-31T08:23:23.462Z,6.72
2023-03-31T08:25:51.272Z,6.94
2023-03-31T08:28:19.148Z,6.90
2023-03-31T08:30:47.308Z,7.23
2023-03-31T08:33:15.137Z,7.30
2023-03-31T08:35:42.931Z,6.21
2023-03-31T08:38:12.082Z,5.65
2023-03-31T08:40:42.433Z,5.16
2023-03-31T08:43:15.557Z,5.03
2023-03-31T08:45:47.571Z,4.17
2023-03-31T08:48:25.726Z,4.43
2023-03-31T08:50:56.920Z,4.15
2023-03-31T08:53:29.891Z,3.62
2023-03-31T08:55:59.853Z,3.97
2023-03-31T08:58:39.533Z,5.25
2023-03-31T09:01:17.421Z,5.41
2023-03-31T09:03:58.379Z,5.90
2023-03-31T09:06:36.004Z,6.85
2023-03-31T09:09:11.349Z,7.45
2023-03-31T09:11:45.551Z,7.01
2023-03-31T09:14:27.860Z,8.13
2023-03-31T09:17:03.674Z,8.20
2023-03-31T09:19:38.187Z,7.36
2023-03-31T09:22:12.893Z,7.13
2023-03-31T09:24:50.109Z,7.48
2023-03-31T09:27:18.400Z,8.59
2023-03-31T09:29:51.325Z,8.45
2023-03-31T09:32:21.736Z,8.60
2023-03-31T09:34:53.826Z,8.04
2023-03-31T09:37:21.700Z,7.31
2023-03-31T09:39:50.810Z,7.05
2023-03-31T09:42:20.338Z,7.32
2023-03-31T09:44:50.770Z,8.19
2023-03-31T09:47:27.200Z,8.67
2023-03-31T09:49:54.983Z,8.93
2023-03-31T09:52:28.728Z,9.75
2023-03-31T09:55:02.198Z,11.02
2023-03-31T09:57:33.525Z,11.36
2023-03-31T10:00:16.599Z,12.12
2023-03-31T10:02:49.567Z,12.43
2023-03-31T10:05:29.016Z,14.70
2023-03-31T10:08:22.390Z,15.66
2023-03-31T10:10:53.941Z,15.74
2023-03-31T10:13:25.114Z,15.54
2023-03-31T10:15:54.580Z,14.38
2023-03-31T10:18:33.312Z,14.15
2023-03-31T10:21:03.048Z,14.52
2023-03-31T10:23:32.571Z,14.77
2023-03-31T10:26:03.026Z,13.70
2023-03-31T10:28:35.340Z,13.20
2023-03-31T10:31:04.557Z,13.14
2023-03-31T10:33:34.807Z,12.55
2023-03-31T10:36:09.316Z,11.96
2023-03-31T10:38:40.649Z,12.59
2023-03-31T10:41:10.806Z,13.53
2023-03-31T10:43:41.848Z,11.99
2023-03-31T10:46:10.692Z,12.39
2023-03-31T10:48:41.085Z,14.71
2023-03-31T10:51:16.205Z,16.21
2023-03-31T10:53:46.215Z,15.86
2023-03-31T10:56:31.836Z,16.82
2023-03-31T10:59:15.547Z,17.92
2023-03-31T11:02:00.632Z,16.17
2023-03-31T11:04:57.415Z,17.10
2023-03-31T11:07:35.484Z,16.27
2023-03-31T11:10:35.934Z,14.98
2023-03-31T11:13:13.167Z,16.79
2023-03-31T11:15:48.204Z,17.87
2023-03-31T11:18:34.120Z,16.41
2023-03-31T11:21:11.606Z,17.21
2023-03-31T11:23:43.148Z,16.11
2023-03-31T11:26:15.605Z,14.78
2023-03-31T11:29:02.010Z,13.99
2023-03-31T11:31:40.388Z,13.61
2023-03-31T11:34:21.088Z,13.26
2023-03-31T11:37:13.212Z,13.88
2023-03-31T11:39:51.920Z,13.47
2023-03-31T11:42:23.949Z,13.90
2023-03-31T11:44:59.929Z,15.58
2023-03-31T11:47:32.059Z,14.05
2023-03-31T11:50:04.922Z,15.02
2023-03-31T11:52:38.475Z,16.15
2023-03-31T11:55:15.386Z,16.73
2023-03-31T11:57:47.842Z,17.18
2023-03-31T12:00:21.262Z,16.83
2023-03-31T12:02:53.842Z,17.73
2023-03-31T12:05:23.830Z,18.21
2023-03-31T12:07:59.056Z,18.09
2023-03-31T12:10:35.527Z,19.17
2023-03-31T12:13:13.346Z,19.08
2023-03-31T12:15:47.976Z,18.87
2023-03-31T12:18:21.786Z,18.47
2023-03-31T12:20:54.323Z,18.15
2023-03-31T12:23:26.041Z,18.09
2023-03-31T12:26:00.606Z,17.86
2023-03-31T12:28:32.675Z,16.67
2023-03-31T12:31:04.277Z,15.89
2023-03-31T12:33:34.585Z,15.99
2023-03-31T12:36:25.220Z,16.06
2023-03-31T12:39:04.790Z,15.16
2023-03-31T12:41:41.062Z,14.60
2023-03-31T12:44:35.016Z,15.22
2023-03-31T12:47:23.432Z,16.36
2023-03-31T12:50:06.815Z,16.50
2023-03-31T12:52:47.252Z,17.46
2023-03-31T12:55:32.984Z,18.15
2023-03-31T12:58:38.451Z,16.11
2023-03-31T13:01:10.720Z,15.56
2023-03-31T13:03:55.851Z,15.63
2023-03-31T13:06:59.495Z,15.02
2023-03-31T13:09:45.202Z,15.52
2023-03-31T13:12:17.268Z,14.19
2023-03-31T13:14:47.464Z,14.60
2023-03-31T13:17:27.274Z,14.84
2023-03-31T13:19:58.576Z,14.73
2023-03-31T13:22:32.669Z,14.35
2023-03-31T13:25:34.537Z,14.46
2023-03-31T13:28:13.915Z,15.16
2023-03-31T13:30:54.097Z,15.43
2023-03-31T13:33:26.116Z,14.92
2023-03-31T13:36:11.555Z,16.24
2023-03-31T13:38:51.492Z,16.53
2023-03-31T13:41:33.756Z,16.82
2023-03-31T13:44:30.516Z,15.50
2023-03-31T13:47:20.447Z,15.43
2023-03-31T13:49:56.538Z,15.86
2023-03-31T13:52:44.794Z,16.32
2023-03-31T13:55:49.266Z,15.93
2023-03-31T13:58:53.338Z,14.86
2023-03-31T14:02:03.707Z,15.88
2023-03-31T14:04:52.690Z,15.27
2023-03-31T14:07:23.966Z,12.74
2023-03-31T14:09:54.166Z,12.37
2023-03-31T14:12:30.533Z,12.82
2023-03-31T14:14:58.519Z,12.35
2023-03-31T14:17:29.653Z,13.20
2023-03-31T14:20:17.124Z,12.21
2023-03-31T14:22:53.237Z,11.33
2023-03-31T14:25:34.772Z,12.67
2023-03-31T14:28:16.722Z,13.12
2023-03-31T14:30:52.794Z,14.12
2023-03-31T14:33:34.295Z,13.01
2023-03-31T14:36:09.352Z,13.07
2023-03-31T14:38:37.176Z,14.06
2023-03-31T14:41:06.717Z,14.08
2023-03-31T14:43:37.876Z,14.80
2023-03-31T14:46:07.721Z,14.50
2023-03-31T14:48:43.458Z,14.53
2023-03-31T14:51:12.525Z,14.90
2023-03-31T14:53:40.547Z,15.64
2023-03-31T14:56:13.838Z,14.09
2023-03-31T14:58:45.616Z,13.66
2023-03-31T15:01:18.252Z,13.92
2023-03-31T15:03:47.217Z,14.86
2023-03-31T15:06:16.592Z,14.57
2023-03-31T15:08:45.708Z,14.71
2023-03-31T15:11:19.513Z,13.83
2023-03-31T15:14:00.828Z,12.83
2023-03-31T15:16:36.272Z,13.44
2023-03-31T15:19:12.626Z,12.39
2023-03-31T15:21:40.494Z,12.49
2023-03-31T15:24:08.574Z,12.45
2023-03-31T15:26:42.286Z,12.22
2023-03-31T15:29:14.389Z,11.37
2023-03-31T15:31:42.225Z,10.83
2023-03-31T15:34:15.803Z,10.15
2023-03-31T15:36:44.191Z,8.67
2023-03-31T15:39:14.548Z,8.04
2023-03-31T15:41:43.989Z,7.10
2023-03-31T15:44:31.574Z,6.38
2023-03-31T15:47:01.720Z,6.23
2023-03-31T15:49:30.497Z,5.70
2023-03-31T15:52:00.478Z,5.04
2023-03-31T15:54:35.973Z,4.23
2023-03-31T15:57:07.100Z,3.43
2023-03-31T15:59:55.270Z,2.78
2023-03-31T16:02:27.433Z,2.61
2023-03-31T16:04:57.971Z,2.34
2023-03-31T16:07:29.689Z,2.13
2023-03-31T16:10:03.440Z,2.14
2023-03-31T16:12:36.992Z,2.09
2023-03-31T16:15:09.244Z,1.89
2023-03-31T16:17:43.045Z,1.77
2023-03-31T16:20:19.443Z,1.79
2023-03-31T16:22:51.224Z,1.98
2023-03-31T16:25:22.217Z,2.11
2023-03-31T16:27:54.843Z,2.08
2023-03-31T16:30:33.933Z,1.98
2023-03-31T16:33:03.749Z,1.70
2023-03-31T16:35:33.461Z,1.50
2023-03-31T16:38:02.843Z,1.34
2023-03-31T16:40:32.873Z,1.16
2023-03-31T16:43:14.187Z,0.81
2023-03-31T16:45:42.556Z,0.71
2023-03-31T16:48:16.115Z,0.56
2023-03-31T16:50:46.059Z,0.45
2023-03-31T16:53:14.576Z,0.28
2023-03-31T16:55:42.391Z,0.14
2023-03-31T16:58:12.096Z,-0.02
2023-03-31T17:00:41.972Z,-0.20
2023-03-31T17:03:11.835Z,-0.18
2023-03-31T17:05:40.256Z,-0.28
2023-03-31T17:08:08.545Z,-0.41
2023-03-31T17:10:36.546Z,-0.46
2023-03-31T17:13:04.563Z,-0.52
2023-03-31T17:15:36.372Z,-0.63
2023-03-31T17:18:05.288Z,-0.79
2023-03-31T17:20:34.199Z,-0.77
2023-03-31T17:23:02.409Z,-0.90
2023-03-31T17:25:30.132Z,-0.99
2023-03-31T17:28:00.607Z,-1.10
2023-03-31T17:30:28.710Z,-1.20
2023-03-31T17:32:58.411Z,-1.33
2023-03-31T17:35:26.926Z,-1.39
2023-03-31T17:37:55.349Z,-1.56
2023-03-31T17:40:25.959Z,-1.60
2023-03-31T17:42:55.331Z,-1.76
2023-03-31T17:45:23.765Z,-1.85
2023-03-31T17:47:51.766Z,-2.01
2023-03-31T17:50:21.055Z,-2.07
2023-03-31T17:52:48.887Z,-2.28
2023-03-31T17:55:17.154Z,-2.37
2023-03-31T17:57:45.100Z,-2.50
2023-03-31T18:00:15.185Z,-2.65
2023-03-31T18:02:43.747Z,-2.77
2023-03-31T18:05:11.885Z,-2.91
2023-03-31T18:07:41.434Z,-3.04
2023-03-31T18:10:10.689Z,-3.07
2023-03-31T18:12:38.800Z,-3.20
2023-03-31T18:15:07.830Z,-3.30
2023-03-31T18:17:36.488Z,-3.34
2023-03-31T18:20:05.557Z,-3.42
2023-03-31T18:22:33.679Z,-3.45
2023-03-31T18:25:03.133Z,-3.56
2023-03-31T18:27:30.942Z,-3.65
2023-03-31T18:29:58.647Z,-3.75
2023-03-31T18:32:27.747Z,-3.81
2023-03-31T18:34:56.049Z,-3.90
2023-03-31T18:37:23.873Z,-3.98
2023-03-31T18:39:51.621Z,-4.06
2023-03-31T18:42:25.310Z,-4.14
2023-03-31T18:44:53.319Z,-4.17
2023-03-31T18:47:21.710Z,-4.23
2023-03-31T18:49:53.779Z,-4.35
2023-03-31T18:52:22.182Z,-4.33
2023-03-31T18:54:51.477Z,-4.33
2023-03-31T18:57:21.062Z,-4.41
2023-03-31T18:59:48.988Z,-4.51
2023-03-31T19:02:18.238Z,-4.63
2023-03-31T19:04:46.856Z,-4.70
2023-03-31T19:07:14.742Z,-4.81
2023-03-31T19:09:42.649Z,-4.88
2023-03-31T19:12:11.092Z,-4.92
2023-03-31T19:14:41.358Z,-4.91
2023-03-31T19:17:09.172Z,-4.89
2023-03-31T19:19:37.005Z,-4.97
2023-03-31T19:22:05.198Z,-4.98
2023-03-31T19:24:32.986Z,-4.96
2023-03-31T19:27:00.925Z,-4.91
2023-03-31T19:29:30.347Z,-4.92
2023-03-31T19:31:59.520Z,-4.82
2023-03-31T19:34:27.331Z,-4.82
2023-03-31T19:36:55.480Z,-4.80
2023-03-31T19:39:25.381Z,-4.76
2023-03-31T19:41:53.130Z,-4.79
2023-03-31T19:44:20.881Z,-4.82
2023-03-31T19:46:48.765Z,-4.91
2023-03-31T19:49:18.733Z,-4.93
2023-03-31T19:51:46.920Z,-4.95
2023-03-31T19:54:14.748Z,-5.00
2023-03-31T19:56:42.561Z,-5.07
2023-03-31T19:59:10.561Z,-5.16
2023-03-31T20:01:38.708Z,-5.21
2023-03-31T20:04:06.675Z,-5.31
2023-03-31T20:06:37.129Z,-5.41
2023-03-31T20:09:06.304Z,-5.48
2023-03-31T20:11:34.530Z,-5.55
2023-03-31T20:14:03.295Z,-5.63
2023-03-31T20:16:32.927Z,-5.68
2023-03-31T20:19:04.343Z,-5.73
2023-03-31T20:21:34.585Z,-5.77
2023-03-31T20:24:04.443Z,-5.83
2023-03-31T20:26:33.999Z,-5.83
2023-03-31T20:29:04.067Z,-5.89
2023-03-31T20:31:36.377Z,-5.89
2023-03-31T20:34:06.113Z,-5.94
2023-03-31T20:36:34.342Z,-5.98
2023-03-31T20:39:05.634Z,-6.05
2023-03-31T20:41:34.829Z,-6.17
2023-03-31T20:44:02.812Z,-6.13
2023-03-31T20:46:30.701Z,-6.15
2023-03-31T20:48:59.461Z,-6.20
2023-03-31T20:51:29.343Z,-6.21
2023-03-31T20:53:58.370Z,-6.22
2023-03-31T20:56:29.608Z,-6.22
2023-03-31T20:58:59.100Z,-6.19
2023-03-31T21:01:27.723Z,-6.24
2023-03-31T21:04:00.664Z,-6.30
2023-03-31T21:06:29.584Z,-6.30
2023-03-31T21:08:58.391Z,-6.30
2023-03-31T21:11:28.254Z,-6.37
2023-03-31T21:13:56.339Z,-6.38
2023-03-31T21:16:25.379Z,-6.41
2023-03-31T21:18:54.960Z,-6.46
2023-03-31T21:21:24.540Z,-6.47
2023-03-31T21:23:52.669Z,-6.48
2023-03-31T21:26:21.839Z,-6.69
2023-03-31T21:28:54.156Z,-6.61
2023-03-31T21:31:24.117Z,-6.70
2023-03-31T21:33:52.654Z,-6.82
2023-03-31T21:36:22.964Z,-6.90
2023-03-31T21:38:53.144Z,-7.08
2023-03-31T21:41:24.079Z,-7.00
2023-03-31T21:43:54.512Z,-7.07
2023-03-31T21:46:24.807Z,-7.14
2023-03-31T21:48:52.651Z,-7.22
2023-03-31T21:51:22.388Z,-7.29
2023-03-31T21:53:51.432Z,-7.34
2023-03-31T21:56:19.267Z,-7.43
2023-03-31T21:58:47.254Z,-7.44
2023-03-31T22:01:16.701Z,-7.50
2023-03-31T22:03:44.461Z,-7.52
2023-03-31T22:06:12.512Z,-7.59
2023-03-31T22:08:41.363Z,-7.64
2023-03-31T22:11:12.856Z,-7.69
2023-03-31T22:13:41.019Z,-7.70
2023-03-31T22:16:17.971Z,-7.66
2023-03-31T22:18:47.008Z,-7.63
2023-03-31T22:21:17.157Z,-7.62
2023-03-31T22:23:45.118Z,-7.63
2023-03-31T22:26:12.996Z,-7.72
2023-03-31T22:28:40.980Z,-7.67
2023-03-31T22:31:08.892Z,-7.55
2023-03-31T22:33:38.083Z,-7.57
2023-03-31T22:36:07.241Z,-7.56
2023-03-31T22:38:35.348Z,-7.55
2023-03-31T22:41:03.100Z,-7.54
2023-03-31T22:43:30.917Z,-7.48
2023-03-31T22:45:59.016Z,-7.46
2023-03-31T22:48:26.885Z,-7.43
2023-03-31T22:50:56.051Z,-7.47
2023-03-31T22:53:23.819Z,-7.43
2023-03-31T22:55:54.355Z,-7.49
2023-03-31T22:58:23.121Z,-7.41
2023-03-31T23:00:57.204Z,-7.36
2023-03-31T23:03:25.639Z,-7.38
2023-03-31T23:05:53.568Z,-7.42
2023-03-31T23:08:22.756Z,-7.42
2023-03-31T23:10:57.756Z,-7.41
2023-03-31T23:13:26.145Z,-7.42
2023-03-31T23:15:54.082Z,-7.43
2023-03-31T23:18:22.474Z,-7.42
2023-03-31T23:20:50.525Z,-7.49
2023-03-31T23:23:18.284Z,-7.47
2023-03-31T23:25:47.505Z,-7.53
2023-03-31T23:28:16.688Z,-7.52
2023-03-31T23:30:53.997Z,-7.56
2023-03-31T23:33:21.974Z,-7.57
2023-03-31T23:35:50.129Z,-7.52
2023-03-31T23:38:18.248Z,-7.52
2023-03-31T23:40:48.574Z,-7.49
2023-03-31T23:43:17.400Z,-7.43
2023-03-31T23:45:45.444Z,-7.44
2023-03-31T23:48:13.711Z,-7.47
2023-03-31T23:50:42.723Z,-7.48
2023-03-31T23:53:10.720Z,-7.51
2023-03-31T23:55:38.640Z,-7.54
2023-03-31T23:58:07.885Z,-7.52
